Stephen L. — WDE7070 — position and weather

sailwx.info

Track history (hours):
 
Tides and Currents Weather Stations Pressure Air Temp Water Temp Dewpoint Dewpoint Depression Visibility Wind Speed Wind Dir Waves Ship Positions

Stephen L.

Owner: TRIPLE S MARINE, LLC, MORGAN CITY, LA. More information available from US FCC via Universal Licensing System and Coast Guard Vessel Documentation Center.

Last reported at 2017-Mar-11 18:32 UTC. Time now 2017-Mar-28 02:29 UTC.
Position N 29°49' W 092°03'.
Warning: this ship's position is 16 days out of date.

Length 20 m.

Type: Ship. MMSI: 367388580.

Date/timePositionNaut miles runAvg speedWind from/ knotsBaromVisibWave heightAir tempDewpointWater temp
2017-Mar-11 18:32N 29°49' W 092°03'6 6.3
2017-Mar-11 17:33N 29°47' W 092°10'4 3.9
2017-Mar-11 16:33N 29°48' W 092°14'5 5.1
2017-Mar-11 15:33N 29°50' W 092°20'47 4.2
2017-Mar-11 04:33N 29°59' W 093°12'5 4.9
2017-Mar-11 03:33N 30°03' W 093°16'4 3.5
2017-Mar-11 02:33N 30°06' W 093°18'4 4.0
2017-Mar-11 01:33N 30°10' W 093°19'6 5.0
2017-Mar-11 00:23N 30°14' W 093°15'1 1.1
2017-Mar-10 23:30N 30°14' W 093°15'1 0.0
2017-Mar-09 04:25N 30°13' W 093°16'4 5.1
2017-Mar-09 03:33N 30°10' W 093°19'5 5.2
2017-Mar-09 02:33N 30°05' W 093°20'4 4.2
2017-Mar-09 01:33N 30°09' W 093°20'7 6.2
2017-Mar-09 00:26N 30°14' W 093°15'1 0.2
2017-Mar-08 17:30N 30°13' W 093°15'0 0.0
2017-Mar-08 16:12N 30°13' W 093°15'0 0.0
2017-Mar-08 13:33N 30°13' W 093°15'0 0.3
2017-Mar-08 12:31N 30°13' W 093°14'0 0.3
2017-Mar-08 11:19N 30°13' W 093°15'0 0.0
2017-Mar-08 10:33N 30°13' W 093°15'0 0.0
2017-Mar-08 09:33N 30°13' W 093°15'0 0.0
2017-Mar-08 08:32N 30°13' W 093°15'0 0.0
2017-Mar-08 03:28N 30°13' W 093°15'0 0.0
2017-Mar-08 01:33N 30°13' W 093°15'0 0.0
2017-Mar-08 00:26N 30°13' W 093°15'0 0.0
2017-Mar-07 21:31N 30°13' W 093°15'0 0.1
2017-Mar-07 20:18N 30°13' W 093°15'1 1.0
2017-Mar-07 19:33N 30°13' W 093°16'7 6.9
2017-Mar-07 18:33N 30°07' W 093°20'0 0.1
2017-Mar-07 17:33N 30°07' W 093°20'6 6.4
2017-Mar-07 16:33N 30°12' W 093°16'2 0.6
2017-Mar-07 13:30N 30°14' W 093°15'0 0.2
2017-Mar-07 11:10N 30°13' W 093°15'0 0.0
2017-Mar-07 03:26N 30°13' W 093°15'0 0.0
2017-Mar-07 02:31N 30°13' W 093°15'0 0.0
2017-Mar-07 00:12N 30°13' W 093°15'3 4.8
2017-Mar-06 23:33N 30°11' W 093°18'3 1.5
2017-Mar-06 21:30N 30°13' W 093°15'0 0.0
2017-Mar-06 20:04N 30°13' W 093°15'0 0.1
2017-Mar-06 19:30N 30°13' W 093°15'0 0.4
2017-Mar-06 18:33N 30°13' W 093°15'3 2.8
2017-Mar-06 17:33N 30°11' W 093°18'0 0.0
2017-Mar-06 16:33N 30°11' W 093°18'0 0.0
2017-Mar-06 15:33N 30°11' W 093°18'5 5.3
2017-Mar-06 14:33N 30°06' W 093°20'3 3.2
2017-Mar-06 13:33N 30°04' W 093°22'0 0.0
2017-Mar-06 12:33N 30°04' W 093°22'0 0.0
2017-Mar-06 11:33N 30°04' W 093°22'0 0.0
2017-Mar-06 10:33N 30°04' W 093°22'0 0.0
2017-Mar-06 09:33N 30°04' W 093°22'0 0.0
2017-Mar-06 08:33N 30°04' W 093°22'0 0.0
2017-Mar-06 07:33N 30°04' W 093°22'0 0.0
2017-Mar-06 06:32N 30°04' W 093°22'0 0.0
2017-Mar-06 05:33N 30°04' W 093°22'0 0.0
2017-Mar-06 04:33N 30°04' W 093°22'0 0.0
2017-Mar-06 03:33N 30°04' W 093°22'0 0.0
2017-Mar-06 02:33N 30°04' W 093°22'0 0.0
2017-Mar-06 01:33N 30°04' W 093°22'0 0.0
2017-Mar-06 00:33N 30°04' W 093°22'0 0.0
2017-Mar-05 23:33N 30°04' W 093°22'0 0.0
2017-Mar-05 22:33N 30°04' W 093°22'0 0.0
2017-Mar-05 21:33N 30°04' W 093°22'0 0.0
2017-Mar-05 20:33N 30°04' W 093°22'0 0.0
2017-Mar-05 19:33N 30°04' W 093°22'0 0.0
2017-Mar-05 18:33N 30°04' W 093°22'0 0.0
2017-Mar-05 17:33N 30°04' W 093°22'0 0.0
2017-Mar-05 16:33N 30°04' W 093°22'0 0.0
2017-Mar-05 15:33N 30°04' W 093°22'6 6.1
2017-Mar-05 14:33N 30°09' W 093°20'6 6.0
2017-Mar-05 13:33N 30°14' W 093°15'0 0.0
2017-Mar-04 16:21N 30°14' W 093°15'0 0.0
2017-Mar-04 03:33N 30°14' W 093°15'7 6.6
2017-Mar-04 02:33N 30°09' W 093°20'3 3.1
2017-Mar-04 01:33N 30°06' W 093°18'5 5.5
2017-Mar-04 00:33N 30°12' W 093°17'4 1.2
2017-Mar-03 21:31N 30°14' W 093°15'0 0.0
2017-Mar-03 00:07N 30°14' W 093°15'1 0.5
2017-Mar-02 21:30N 30°13' W 093°15'0 0.0
2017-Mar-02 00:33N 30°13' W 093°15'0 0.0
2017-Mar-01 23:21N 30°13' W 093°15'0 0.0
2017-Mar-01 22:33N 30°13' W 093°15'0 0.0
2017-Mar-01 21:33N 30°13' W 093°15'0 0.0
2017-Mar-01 20:33N 30°13' W 093°15'0 0.0
2017-Mar-01 19:33N 30°13' W 093°15'0 0.0
2017-Mar-01 18:33N 30°13' W 093°15'  
Track history (hours):
 
Tides and Currents Weather Stations Pressure Air Temp Water Temp Dewpoint Dewpoint Depression Visibility Wind Speed Wind Dir Waves Ship Positions

Stephen L.

Owner: TRIPLE S MARINE, LLC, MORGAN CITY, LA. More information available from US FCC via Universal Licensing System and Coast Guard Vessel Documentation Center.

Last reported at 2017-Mar-11 18:32 UTC. Time now 2017-Mar-28 02:29 UTC.
Position N 29°49' W 092°03'.
Warning: this ship's position is 16 days out of date.

Length 20 m.

Type: Ship. MMSI: 367388580.

Date/timePositionNaut miles runAvg speedWind from/ knotsBaromVisibWave heightAir tempDewpointWater temp
2017-Mar-11 18:32N 29°49' W 092°03'6 6.3
2017-Mar-11 17:33N 29°47' W 092°10'4 3.9
2017-Mar-11 16:33N 29°48' W 092°14'5 5.1
2017-Mar-11 15:33N 29°50' W 092°20'47 4.2
2017-Mar-11 04:33N 29°59' W 093°12'5 4.9
2017-Mar-11 03:33N 30°03' W 093°16'4 3.5
2017-Mar-11 02:33N 30°06' W 093°18'4 4.0
2017-Mar-11 01:33N 30°10' W 093°19'6 5.0
2017-Mar-11 00:23N 30°14' W 093°15'1 1.1
2017-Mar-10 23:30N 30°14' W 093°15'1 0.0
2017-Mar-09 04:25N 30°13' W 093°16'4 5.1
2017-Mar-09 03:33N 30°10' W 093°19'5 5.2
2017-Mar-09 02:33N 30°05' W 093°20'4 4.2
2017-Mar-09 01:33N 30°09' W 093°20'7 6.2
2017-Mar-09 00:26N 30°14' W 093°15'1 0.2
2017-Mar-08 17:30N 30°13' W 093°15'0 0.0
2017-Mar-08 16:12N 30°13' W 093°15'0 0.0
2017-Mar-08 13:33N 30°13' W 093°15'0 0.3
2017-Mar-08 12:31N 30°13' W 093°14'0 0.3
2017-Mar-08 11:19N 30°13' W 093°15'0 0.0
2017-Mar-08 10:33N 30°13' W 093°15'0 0.0
2017-Mar-08 09:33N 30°13' W 093°15'0 0.0
2017-Mar-08 08:32N 30°13' W 093°15'0 0.0
2017-Mar-08 03:28N 30°13' W 093°15'0 0.0
2017-Mar-08 01:33N 30°13' W 093°15'0 0.0
2017-Mar-08 00:26N 30°13' W 093°15'0 0.0
2017-Mar-07 21:31N 30°13' W 093°15'0 0.1
2017-Mar-07 20:18N 30°13' W 093°15'1 1.0
2017-Mar-07 19:33N 30°13' W 093°16'7 6.9
2017-Mar-07 18:33N 30°07' W 093°20'0 0.1
2017-Mar-07 17:33N 30°07' W 093°20'6 6.4
2017-Mar-07 16:33N 30°12' W 093°16'2 0.6
2017-Mar-07 13:30N 30°14' W 093°15'0 0.2
2017-Mar-07 11:10N 30°13' W 093°15'0 0.0
2017-Mar-07 03:26N 30°13' W 093°15'0 0.0
2017-Mar-07 02:31N 30°13' W 093°15'0 0.0
2017-Mar-07 00:12N 30°13' W 093°15'3 4.8
2017-Mar-06 23:33N 30°11' W 093°18'3 1.5
2017-Mar-06 21:30N 30°13' W 093°15'0 0.0
2017-Mar-06 20:04N 30°13' W 093°15'0 0.1
2017-Mar-06 19:30N 30°13' W 093°15'0 0.4
2017-Mar-06 18:33N 30°13' W 093°15'3 2.8
2017-Mar-06 17:33N 30°11' W 093°18'0 0.0
2017-Mar-06 16:33N 30°11' W 093°18'0 0.0
2017-Mar-06 15:33N 30°11' W 093°18'5 5.3
2017-Mar-06 14:33N 30°06' W 093°20'3 3.2
2017-Mar-06 13:33N 30°04' W 093°22'0 0.0
2017-Mar-06 12:33N 30°04' W 093°22'0 0.0
2017-Mar-06 11:33N 30°04' W 093°22'0 0.0
2017-Mar-06 10:33N 30°04' W 093°22'0 0.0
2017-Mar-06 09:33N 30°04' W 093°22'0 0.0
2017-Mar-06 08:33N 30°04' W 093°22'0 0.0
2017-Mar-06 07:33N 30°04' W 093°22'0 0.0
2017-Mar-06 06:32N 30°04' W 093°22'0 0.0
2017-Mar-06 05:33N 30°04' W 093°22'0 0.0
2017-Mar-06 04:33N 30°04' W 093°22'0 0.0
2017-Mar-06 03:33N 30°04' W 093°22'0 0.0
2017-Mar-06 02:33N 30°04' W 093°22'0 0.0
2017-Mar-06 01:33N 30°04' W 093°22'0 0.0
2017-Mar-06 00:33N 30°04' W 093°22'0 0.0
2017-Mar-05 23:33N 30°04' W 093°22'0 0.0
2017-Mar-05 22:33N 30°04' W 093°22'0 0.0
2017-Mar-05 21:33N 30°04' W 093°22'0 0.0
2017-Mar-05 20:33N 30°04' W 093°22'0 0.0
2017-Mar-05 19:33N 30°04' W 093°22'0 0.0
2017-Mar-05 18:33N 30°04' W 093°22'0 0.0
2017-Mar-05 17:33N 30°04' W 093°22'0 0.0
2017-Mar-05 16:33N 30°04' W 093°22'0 0.0
2017-Mar-05 15:33N 30°04' W 093°22'6 6.1
2017-Mar-05 14:33N 30°09' W 093°20'6 6.0
2017-Mar-05 13:33N 30°14' W 093°15'0 0.0
2017-Mar-04 16:21N 30°14' W 093°15'0 0.0
2017-Mar-04 03:33N 30°14' W 093°15'7 6.6
2017-Mar-04 02:33N 30°09' W 093°20'3 3.1
2017-Mar-04 01:33N 30°06' W 093°18'5 5.5
2017-Mar-04 00:33N 30°12' W 093°17'4 1.2
2017-Mar-03 21:31N 30°14' W 093°15'0 0.0
2017-Mar-03 00:07N 30°14' W 093°15'1 0.5
2017-Mar-02 21:30N 30°13' W 093°15'0 0.0
2017-Mar-02 00:33N 30°13' W 093°15'0 0.0
2017-Mar-01 23:21N 30°13' W 093°15'0 0.0
2017-Mar-01 22:33N 30°13' W 093°15'0 0.0
2017-Mar-01 21:33N 30°13' W 093°15'0 0.0
2017-Mar-01 20:33N 30°13' W 093°15'0 0.0
2017-Mar-01 19:33N 30°13' W 093°15'0 0.0
2017-Mar-01 18:33N 30°13' W 093°15'  

Dump ship's entire track history